Terminal Aerodrome Forecast
Issued by NWS

Home | Current Version | Previous Version | Text Only | Print | Product List | Glossary On
Versions: 1 2 3 4 5 6 7 8 9 10 11 12 13 14 15 16 17 18 19 20 21 22 23 24 25 26 27 28 29
000
FTUS43 KDLH 051100
TAFHYR
TAF
KHYR 051139Z 0512/0612 VRB02KT P6SM SKC
     FM051600 25005KT P6SM SCT025
     FM051900 22006KT P6SM SCT035
     FM060600 20006KT P6SM SCT150 WS015/24040KT=

USA.gov is the U.S. government's official web portal to all federal, state and local government web resources and services.